createdAt,value
2023-03-21T00:04:44.552Z,13.88
2023-03-21T00:10:29.754Z,13.85
2023-03-21T00:16:26.364Z,13.89
2023-03-21T00:28:05.133Z,13.83
2023-03-21T00:33:34.887Z,13.74
2023-03-21T00:39:06.465Z,13.72
2023-03-21T00:44:37.175Z,13.70
2023-03-21T00:50:05.242Z,13.70
2023-03-21T00:55:32.839Z,13.73
2023-03-21T01:01:02.770Z,13.79
2023-03-21T01:06:31.355Z,13.91
2023-03-21T01:11:58.839Z,14.00
2023-03-21T01:17:26.582Z,13.48
2023-03-21T01:22:54.141Z,13.73
2023-03-21T01:28:22.332Z,13.65
2023-03-21T01:33:49.871Z,13.65
2023-03-21T01:39:17.611Z,13.57
2023-03-21T01:45:01.456Z,13.70
2023-03-21T01:50:38.132Z,13.67
2023-03-21T01:56:32.865Z,13.64
2023-03-21T02:02:10.299Z,13.45
2023-03-21T02:07:46.172Z,13.33
2023-03-21T02:13:18.583Z,13.17
2023-03-21T02:19:31.933Z,13.11
2023-03-21T02:25:27.632Z,13.08
2023-03-21T02:31:17.419Z,13.12
2023-03-21T02:36:51.890Z,13.14
2023-03-21T02:42:44.975Z,13.13
2023-03-21T02:48:33.140Z,13.20
2023-03-21T02:54:45.256Z,13.18
2023-03-21T03:00:07.709Z,13.14
2023-03-21T03:05:49.601Z,13.15
2023-03-21T03:11:36.915Z,13.23
2023-03-21T03:17:10.007Z,13.24
2023-03-21T03:23:11.831Z,13.31
2023-03-21T03:28:55.097Z,13.24
2023-03-21T03:34:26.707Z,13.21
2023-03-21T03:40:07.249Z,13.11
2023-03-21T03:45:54.150Z,13.08
2023-03-21T03:51:51.342Z,13.30
2023-03-21T03:57:41.241Z,13.31
2023-03-21T04:03:10.107Z,13.27
2023-03-21T04:08:38.086Z,13.27
2023-03-21T04:14:06.068Z,13.27
2023-03-21T04:19:34.274Z,13.23
2023-03-21T04:25:02.088Z,13.24
2023-03-21T04:30:34.384Z,13.24
2023-03-21T04:36:25.196Z,13.24
2023-03-21T04:41:55.513Z,13.16
2023-03-21T04:47:23.211Z,13.24
2023-03-21T04:52:50.904Z,13.21
2023-03-21T04:58:20.584Z,13.18
2023-03-21T05:03:48.574Z,13.18
2023-03-21T05:09:16.292Z,13.21
2023-03-21T05:14:44.723Z,13.06
2023-03-21T05:20:12.174Z,13.16
2023-03-21T05:25:40.600Z,13.20
2023-03-21T05:31:19.267Z,13.31
2023-03-21T05:36:50.348Z,13.39
2023-03-21T05:42:19.052Z,13.45
2023-03-21T05:47:47.444Z,13.59
2023-03-21T05:53:15.209Z,13.76
2023-03-21T05:58:42.379Z,14.04
2023-03-21T06:04:11.813Z,14.16
2023-03-21T06:09:40.481Z,14.11
2023-03-21T06:15:09.178Z,14.08
2023-03-21T06:20:45.107Z,14.35
2023-03-21T06:26:13.409Z,14.52
2023-03-21T06:31:41.520Z,14.58
2023-03-21T06:37:09.635Z,14.68
2023-03-21T06:42:38.352Z,14.87
2023-03-21T06:48:11.614Z,15.09
2023-03-21T06:53:57.437Z,15.08
2023-03-21T06:59:36.678Z,15.07
2023-03-21T07:05:19.814Z,15.05
2023-03-21T07:10:47.898Z,14.92
2023-03-21T07:16:18.323Z,14.70
2023-03-21T07:21:46.034Z,14.62
2023-03-21T07:27:13.538Z,14.59
2023-03-21T07:32:41.259Z,14.68
2023-03-21T07:38:08.763Z,14.69
2023-03-21T07:43:39.184Z,14.79
2023-03-21T07:49:10.516Z,14.94
2023-03-21T07:54:38.893Z,15.10
2023-03-21T08:00:07.682Z,15.20
2023-03-21T08:05:40.909Z,15.31
2023-03-21T08:11:09.113Z,15.30
2023-03-21T08:16:36.953Z,15.34
2023-03-21T08:22:07.515Z,15.73
2023-03-21T08:27:35.527Z,16.27
2023-03-21T08:33:03.150Z,16.82
2023-03-21T08:38:33.620Z,17.45
2023-03-21T08:44:00.876Z,17.55
2023-03-21T08:49:29.009Z,17.69
2023-03-21T08:54:56.878Z,17.62
2023-03-21T09:00:24.298Z,17.96
2023-03-21T09:05:54.341Z,17.95
2023-03-21T09:11:22.062Z,18.04
2023-03-21T09:16:50.258Z,18.29
2023-03-21T09:22:18.188Z,18.19
2023-03-21T09:27:46.452Z,18.10
2023-03-21T09:33:19.833Z,17.93
2023-03-21T09:38:47.700Z,18.51
2023-03-21T09:44:21.857Z,18.55
2023-03-21T09:50:20.735Z,19.55
2023-03-21T09:55:48.391Z,20.75
2023-03-21T10:01:42.268Z,21.19
2023-03-21T10:07:20.892Z,21.48
2023-03-21T10:12:50.060Z,21.93
2023-03-21T10:18:25.318Z,22.03
2023-03-21T10:23:56.274Z,22.67
2023-03-21T10:29:31.924Z,22.64
2023-03-21T10:35:02.267Z,23.31
2023-03-21T10:40:30.844Z,23.56
2023-03-21T10:45:58.593Z,24.03
2023-03-21T10:51:31.289Z,24.15
2023-03-21T10:57:06.782Z,22.68
2023-03-21T11:02:38.390Z,23.12
2023-03-21T11:08:17.531Z,23.10
2023-03-21T11:13:45.503Z,22.99
2023-03-21T11:19:16.734Z,22.95
2023-03-21T11:24:51.685Z,22.97
2023-03-21T11:30:27.358Z,22.32
2023-03-21T11:36:00.574Z,22.33
2023-03-21T11:41:32.904Z,22.02
2023-03-21T11:47:01.077Z,21.60
2023-03-21T11:52:44.350Z,22.14
2023-03-21T11:58:15.208Z,22.35
2023-03-21T12:04:04.716Z,21.96
2023-03-21T12:09:44.101Z,21.81
2023-03-21T12:15:29.814Z,21.84
2023-03-21T12:21:25.956Z,22.05
2023-03-21T12:27:16.495Z,21.78
2023-03-21T12:32:44.751Z,21.98
2023-03-21T12:38:26.386Z,22.50
2023-03-21T12:44:16.301Z,22.60
2023-03-21T12:50:09.764Z,22.94
2023-03-21T12:55:39.825Z,22.85
2023-03-21T13:01:12.566Z,22.52
2023-03-21T13:06:41.555Z,22.75
2023-03-21T13:12:42.670Z,22.33
2023-03-21T13:18:27.767Z,22.24
2023-03-21T13:24:03.324Z,21.94
2023-03-21T13:29:53.952Z,22.28
2023-03-21T13:35:41.416Z,22.49
2023-03-21T13:41:18.016Z,22.74
2023-03-21T13:47:03.406Z,22.84
2023-03-21T13:52:31.935Z,22.84
2023-03-21T13:57:59.588Z,23.12
2023-03-21T14:03:33.598Z,22.94
2023-03-21T14:09:04.103Z,22.62
2023-03-21T14:14:40.708Z,22.22
2023-03-21T14:20:18.837Z,22.26
2023-03-21T14:25:52.272Z,21.71
2023-03-21T14:31:21.436Z,21.50
2023-03-21T14:36:57.667Z,21.34
2023-03-21T14:42:27.277Z,21.02
2023-03-21T14:48:06.400Z,20.74
2023-03-21T14:53:38.581Z,20.41
2023-03-21T14:59:05.946Z,20.20
2023-03-21T15:04:35.824Z,19.85
2023-03-21T15:10:07.790Z,19.85
2023-03-21T15:15:37.534Z,19.97
2023-03-21T15:21:13.771Z,20.03
2023-03-21T15:26:47.093Z,19.74
2023-03-21T15:32:24.394Z,19.67
2023-03-21T15:37:56.065Z,19.56
2023-03-21T15:43:25.990Z,19.13
2023-03-21T15:49:13.765Z,18.92
2023-03-21T15:54:48.897Z,18.63
2023-03-21T16:00:18.644Z,18.38
2023-03-21T16:06:26.006Z,18.10
2023-03-21T16:12:00.108Z,17.79
2023-03-21T16:17:38.078Z,17.57
2023-03-21T16:23:06.116Z,17.42
2023-03-21T16:28:33.015Z,17.10
2023-03-21T16:34:01.941Z,16.87
2023-03-21T16:39:29.028Z,16.62
2023-03-21T16:44:57.346Z,16.32
2023-03-21T16:50:37.964Z,16.14
2023-03-21T16:56:06.349Z,16.06
2023-03-21T17:01:39.765Z,15.70
2023-03-21T17:07:18.269Z,15.70
2023-03-21T17:12:46.152Z,15.68
2023-03-21T17:18:13.393Z,15.64
2023-03-21T17:23:40.982Z,15.60
2023-03-21T17:29:10.964Z,15.40
2023-03-21T17:34:38.078Z,15.24
2023-03-21T17:40:12.623Z,15.04
2023-03-21T17:45:40.666Z,14.84
2023-03-21T17:51:12.971Z,14.68
2023-03-21T17:56:41.899Z,14.58
2023-03-21T18:02:09.285Z,14.57
2023-03-21T18:08:07.831Z,14.62
2023-03-21T18:13:25.401Z,14.51
2023-03-21T18:18:54.162Z,14.49
2023-03-21T18:24:21.701Z,14.49
2023-03-21T18:30:28.798Z,14.44
2023-03-21T18:35:37.325Z,14.45
2023-03-21T18:41:05.517Z,14.39
2023-03-21T18:46:33.719Z,14.33
2023-03-21T18:52:02.059Z,14.20
2023-03-21T18:57:37.051Z,14.26
2023-03-21T19:03:18.775Z,14.04
2023-03-21T19:08:46.892Z,13.93
2023-03-21T19:14:16.464Z,14.06
2023-03-21T19:19:43.952Z,13.96
2023-03-21T19:25:13.233Z,14.04
2023-03-21T19:30:49.862Z,14.09
2023-03-21T19:36:22.507Z,14.14
2023-03-21T19:41:51.640Z,14.11
2023-03-21T19:47:21.581Z,14.12
2023-03-21T19:52:50.452Z,14.25
2023-03-21T19:58:22.754Z,14.24
2023-03-21T20:03:50.925Z,14.29
2023-03-21T20:15:17.035Z,14.33
2023-03-21T20:20:45.658Z,14.23
2023-03-21T20:26:14.920Z,13.73
2023-03-21T20:31:42.757Z,13.17
2023-03-21T20:37:12.548Z,12.88
2023-03-21T20:42:41.060Z,12.57
2023-03-21T20:48:09.177Z,12.42
2023-03-21T20:53:37.699Z,12.13
2023-03-21T20:59:17.346Z,12.10
2023-03-21T21:05:21.539Z,12.24
2023-03-21T21:11:02.717Z,12.36
2023-03-21T21:16:28.146Z,12.49
2023-03-21T21:21:55.990Z,12.48
2023-03-21T21:27:24.014Z,12.57
2023-03-21T21:32:52.174Z,12.57
2023-03-21T21:38:21.143Z,12.59
2023-03-21T21:43:49.403Z,12.67
2023-03-21T21:49:17.103Z,12.78
2023-03-21T21:54:46.135Z,12.91
2023-03-21T22:00:14.769Z,12.89
2023-03-21T22:05:44.547Z,12.90
2023-03-21T22:11:12.278Z,12.90
2023-03-21T22:16:39.851Z,12.85
2023-03-21T22:22:06.912Z,12.84
2023-03-21T22:27:34.341Z,12.83
2023-03-21T22:33:09.345Z,12.78
2023-03-21T22:38:38.353Z,12.83
2023-03-21T22:44:06.201Z,12.75
2023-03-21T22:49:34.509Z,12.76
2023-03-21T22:55:02.078Z,12.78
2023-03-21T23:00:29.414Z,12.78
2023-03-21T23:06:00.700Z,12.79
2023-03-21T23:11:27.910Z,12.80
2023-03-21T23:16:55.150Z,12.71
2023-03-21T23:22:22.435Z,12.72
2023-03-21T23:27:51.075Z,12.51
2023-03-21T23:33:17.990Z,12.66
2023-03-21T23:38:46.121Z,12.59
2023-03-21T23:44:13.384Z,12.54
2023-03-21T23:49:41.119Z,12.64
2023-03-21T23:55:09.053Z,12.64
